Cotes De Bretagne — FW3973 — position and weather

sailwx.info

Track history (hours):
 
Tides and Currents Weather Stations Pressure Air Temp Water Temp Dewpoint Dewpoint Depression Visibility Wind Speed Wind Dir Waves Ship Positions

Cotes De Bretagne

Last reported at 2017-Jan-15 19:33 UTC. Time now 2017-Jan-18 20:22 UTC.
Position N 48°43' W 004°28'.

Length 75 m; draft 4.2 m.

Type: Dredging. MMSI: 227003850.

Date/timePositionNaut miles runAvg speedWind from/ knotsBaromVisibWave heightAir tempDewpointWater temp
2017-Jan-15 19:33N 48°43' W 004°28'1111.5
2017-Jan-15 18:33N 48°38' W 004°44'1010.0
2017-Jan-15 17:33N 48°29' W 004°50'1010.2
2017-Jan-15 16:34N 48°19' W 004°47'9 9.5
2017-Jan-15 15:34N 48°10' W 004°45'1010.2
2017-Jan-15 14:33N 47°60' W 004°42'19 9.5
2017-Jan-15 12:33N 47°45' W 004°23'28 9.3
2017-Jan-15 09:33N 47°39' W 003°43'1010.0
2017-Jan-15 08:33N 47°40' W 003°28'8 7.6
2017-Jan-15 07:33N 47°45' W 003°19'0 0.0
2017-Jan-15 06:33N 47°45' W 003°19'0 0.0
2017-Jan-15 05:33N 47°45' W 003°19'0 0.0
2017-Jan-15 04:33N 47°45' W 003°19'0 0.0
2017-Jan-15 03:33N 47°45' W 003°19'5 4.6
2017-Jan-15 02:33N 47°41' W 003°22'6 5.7
2017-Jan-15 01:33N 47°36' W 003°19'7 6.6
2017-Jan-15 00:33N 47°30' W 003°14'7 6.6
2017-Jan-14 23:33N 47°25' W 003°08'6 6.4
2017-Jan-14 22:33N 47°20' W 003°01'8 8.3
2017-Jan-14 21:33N 47°14' W 002°53'8 7.9
2017-Jan-14 20:33N 47°08' W 002°46'38 7.4
2017-Jan-14 15:28N 46°40' W 002°09'7 7.3
2017-Jan-14 14:33N 46°34' W 002°04'7 7.5
2017-Jan-14 13:33N 46°28' W 001°58'7 7.5
2017-Jan-14 12:33N 46°22' W 001°52'9 7.5
2017-Jan-14 11:24N 46°14' W 001°45'2 0.3
2017-Jan-14 06:23N 46°13' W 001°43'910.6
2017-Jan-14 05:33N 46°22' W 001°45'8 8.3
2017-Jan-14 04:33N 46°30' W 001°48'0 0.1
2017-Jan-14 03:33N 46°30' W 001°48'19 4.6
2017-Jan-13 23:33N 46°12' W 001°41'2 0.4
2017-Jan-13 18:32N 46°10' W 001°40'1010.5
2017-Jan-13 17:33N 46°20' W 001°45'10 9.8
2017-Jan-13 16:33N 46°30' W 001°48'0 0.4
2017-Jan-13 15:33N 46°30' W 001°48'0 0.0
2017-Jan-13 14:33N 46°30' W 001°48'2 2.4
2017-Jan-13 13:33N 46°28' W 001°47'7 6.8
2017-Jan-13 12:34N 46°21' W 001°45'7 6.9
2017-Jan-13 11:33N 46°15' W 001°42'7 6.6
2017-Jan-13 10:33N 46°08' W 001°38'12 2.4
2017-Jan-13 05:32N 46°16' W 001°52'1110.9
2017-Jan-13 04:33N 46°24' W 002°02'1111.1
2017-Jan-13 03:33N 46°32' W 002°13'3611.0
2017-Jan-13 00:18N 46°57' W 002°50'810.7
2017-Jan-12 23:33N 47°03' W 002°58'1110.7
2017-Jan-12 22:33N 47°11' W 003°08'1010.3
2017-Jan-12 21:34N 47°19' W 003°19'1110.6
2017-Jan-12 20:33N 47°27' W 003°29'1010.4
2017-Jan-12 19:34N 47°35' W 003°38'2110.7
2017-Jan-12 17:33N 47°48' W 004°03'8 7.9
2017-Jan-12 16:33N 47°56' W 004°07'4 1.2
2017-Jan-12 13:33N 47°52' W 004°07'18 5.9
2017-Jan-12 10:33N 47°42' W 003°46'9 9.2
2017-Jan-12 09:33N 47°37' W 003°34'9 9.3
2017-Jan-12 08:33N 47°31' W 003°24'10 9.7
2017-Jan-12 07:33N 47°25' W 003°12'1010.0
2017-Jan-12 06:33N 47°19' W 003°00'10 9.2
2017-Jan-12 05:27N 47°12' W 002°50'8 8.9
2017-Jan-12 04:33N 47°06' W 002°43'19 8.3
2017-Jan-12 02:19N 46°52' W 002°24'6 8.3
2017-Jan-12 01:33N 46°47' W 002°18'9 8.8
2017-Jan-12 00:33N 46°40' W 002°10'9 8.8
2017-Jan-11 23:33N 46°33' W 002°03'9 8.6
2017-Jan-11 22:33N 46°26' W 001°56'8 8.4
2017-Jan-11 21:33N 46°19' W 001°49'9 8.4
2017-Jan-11 20:27N 46°11' W 001°42'8 7.4
2017-Jan-11 19:26N 46°05' W 001°36'0 0.1
2017-Jan-11 18:33N 46°05' W 001°36'9 4.6
2017-Jan-11 16:33N 46°13' W 001°42'1110.6
2017-Jan-11 15:34N 46°23' W 001°46'7 6.7
2017-Jan-11 14:33N 46°30' W 001°48'0 0.0
2017-Jan-11 13:33N 46°30' W 001°48'4 3.7
2017-Jan-11 12:33N 46°26' W 001°47'7 6.7
2017-Jan-11 11:33N 46°20' W 001°45'7 7.1
2017-Jan-11 10:31N 46°13' W 001°42'2 0.3
2017-Jan-11 05:33N 46°11' W 001°42'1010.2
2017-Jan-11 04:33N 46°20' W 001°50'1010.3
2017-Jan-11 03:33N 46°28' W 001°58'1010.4
2017-Jan-11 02:33N 46°37' W 002°07'1510.6
2017-Jan-11 01:09N 46°49' W 002°20'1910.4
2017-Jan-10 23:21N 47°03' W 002°38'810.4
2017-Jan-10 22:33N 47°09' W 002°46'1010.2
2017-Jan-10 21:33N 47°17' W 002°56'1010.2
2017-Jan-10 20:33N 47°23' W 003°08'10 9.9
2017-Jan-10 19:34N 47°28' W 003°20'1010.3
2017-Jan-10 18:33N 47°35' W 003°32'1110.5
2017-Jan-10 17:33N 47°41' W 003°44'1010.5
2017-Jan-10 16:33N 47°46' W 003°57'9 9.3
2017-Jan-10 15:33N 47°53' W 004°07'3 0.7
2017-Jan-10 11:33N 47°51' W 004°06'15 7.6
2017-Jan-10 09:32N 47°43' W 003°46'9 8.8
2017-Jan-10 08:33N 47°37' W 003°36'8 8.4
2017-Jan-10 07:34N 47°32' W 003°27'8 8.2
2017-Jan-10 06:34N 47°27' W 003°17'9 8.5
2017-Jan-10 05:34N 47°22' W 003°06'9 8.6
2017-Jan-10 04:33N 47°17' W 002°57'8 8.4
2017-Jan-10 03:33N 47°10' W 002°49'8 8.0
2017-Jan-10 02:33N 47°04' W 002°41'32 7.4
2017-Jan-09 22:16N 46°40' W 002°11'6 8.1
2017-Jan-09 21:33N 46°35' W 002°07'8 8.4
2017-Jan-09 20:33N 46°29' W 001°59'9 8.9
2017-Jan-09 19:33N 46°22' W 001°52'10 9.0
2017-Jan-09 18:30N 46°14' W 001°44'4 1.0
2017-Jan-09 14:33N 46°10' W 001°41'10 9.6
2017-Jan-09 13:33N 46°19' W 001°46'10 9.9
2017-Jan-09 12:33N 46°29' W 001°47'1 1.1
2017-Jan-09 11:33N 46°30' W 001°48'2 1.6
2017-Jan-09 10:33N 46°29' W 001°47'0 0.0
2017-Jan-09 09:33N 46°29' W 001°47'0 0.0
2017-Jan-09 08:33N 46°29' W 001°47'0 0.0
2017-Jan-09 07:33N 46°29' W 001°47'0 0.1
2017-Jan-09 06:33N 46°29' W 001°47'0 0.0
2017-Jan-09 05:33N 46°29' W 001°47'0 0.0
2017-Jan-09 04:33N 46°29' W 001°47'0 0.0
2017-Jan-09 03:33N 46°29' W 001°47'4 4.0
2017-Jan-09 02:33N 46°24' W 001°47'8 7.5
2017-Jan-09 01:33N 46°17' W 001°46'6 1.2
2017-Jan-08 20:33N 46°12' W 001°42'1010.2
2017-Jan-08 19:34N 46°20' W 001°51'1010.0
2017-Jan-08 18:33N 46°28' W 001°59'10 9.9
2017-Jan-08 17:33N 46°36' W 002°07'3610.4
2017-Jan-08 14:06N 47°05' W 002°39'610.7
2017-Jan-08 13:33N 47°09' W 002°45'1110.6
2017-Jan-08 12:33N 47°17' W 002°55'1110.8
2017-Jan-08 11:33N 47°23' W 003°08'1110.7
2017-Jan-08 10:33N 47°27' W 003°23'1010.4
2017-Jan-08 09:33N 47°30' W 003°38'1110.3
2017-Jan-08 08:31N 47°34' W 003°52'4010.0
2017-Jan-08 04:33N 47°57' W 004°40'10 9.9
2017-Jan-08 03:34N 48°07' W 004°45'1110.9
2017-Jan-08 02:33N 48°18' W 004°46'1211.6
2017-Jan-08 01:33N 48°29' W 004°50'9 9.5
2017-Jan-08 00:33N 48°38' W 004°46'9 8.9
2017-Jan-07 23:33N 48°42' W 004°33'101 4.7
2017-Jan-07 02:13N 48°39' W 002°01'  
Track history (hours):
 
Tides and Currents Weather Stations Pressure Air Temp Water Temp Dewpoint Dewpoint Depression Visibility Wind Speed Wind Dir Waves Ship Positions

Cotes De Bretagne

Last reported at 2017-Jan-15 19:33 UTC. Time now 2017-Jan-18 20:22 UTC.
Position N 48°43' W 004°28'.

Length 75 m; draft 4.2 m.

Type: Dredging. MMSI: 227003850.

Date/timePositionNaut miles runAvg speedWind from/ knotsBaromVisibWave heightAir tempDewpointWater temp
2017-Jan-15 19:33N 48°43' W 004°28'1111.5
2017-Jan-15 18:33N 48°38' W 004°44'1010.0
2017-Jan-15 17:33N 48°29' W 004°50'1010.2
2017-Jan-15 16:34N 48°19' W 004°47'9 9.5
2017-Jan-15 15:34N 48°10' W 004°45'1010.2
2017-Jan-15 14:33N 47°60' W 004°42'19 9.5
2017-Jan-15 12:33N 47°45' W 004°23'28 9.3
2017-Jan-15 09:33N 47°39' W 003°43'1010.0
2017-Jan-15 08:33N 47°40' W 003°28'8 7.6
2017-Jan-15 07:33N 47°45' W 003°19'0 0.0
2017-Jan-15 06:33N 47°45' W 003°19'0 0.0
2017-Jan-15 05:33N 47°45' W 003°19'0 0.0
2017-Jan-15 04:33N 47°45' W 003°19'0 0.0
2017-Jan-15 03:33N 47°45' W 003°19'5 4.6
2017-Jan-15 02:33N 47°41' W 003°22'6 5.7
2017-Jan-15 01:33N 47°36' W 003°19'7 6.6
2017-Jan-15 00:33N 47°30' W 003°14'7 6.6
2017-Jan-14 23:33N 47°25' W 003°08'6 6.4
2017-Jan-14 22:33N 47°20' W 003°01'8 8.3
2017-Jan-14 21:33N 47°14' W 002°53'8 7.9
2017-Jan-14 20:33N 47°08' W 002°46'38 7.4
2017-Jan-14 15:28N 46°40' W 002°09'7 7.3
2017-Jan-14 14:33N 46°34' W 002°04'7 7.5
2017-Jan-14 13:33N 46°28' W 001°58'7 7.5
2017-Jan-14 12:33N 46°22' W 001°52'9 7.5
2017-Jan-14 11:24N 46°14' W 001°45'2 0.3
2017-Jan-14 06:23N 46°13' W 001°43'910.6
2017-Jan-14 05:33N 46°22' W 001°45'8 8.3
2017-Jan-14 04:33N 46°30' W 001°48'0 0.1
2017-Jan-14 03:33N 46°30' W 001°48'19 4.6
2017-Jan-13 23:33N 46°12' W 001°41'2 0.4
2017-Jan-13 18:32N 46°10' W 001°40'1010.5
2017-Jan-13 17:33N 46°20' W 001°45'10 9.8
2017-Jan-13 16:33N 46°30' W 001°48'0 0.4
2017-Jan-13 15:33N 46°30' W 001°48'0 0.0
2017-Jan-13 14:33N 46°30' W 001°48'2 2.4
2017-Jan-13 13:33N 46°28' W 001°47'7 6.8
2017-Jan-13 12:34N 46°21' W 001°45'7 6.9
2017-Jan-13 11:33N 46°15' W 001°42'7 6.6
2017-Jan-13 10:33N 46°08' W 001°38'12 2.4
2017-Jan-13 05:32N 46°16' W 001°52'1110.9
2017-Jan-13 04:33N 46°24' W 002°02'1111.1
2017-Jan-13 03:33N 46°32' W 002°13'3611.0
2017-Jan-13 00:18N 46°57' W 002°50'810.7
2017-Jan-12 23:33N 47°03' W 002°58'1110.7
2017-Jan-12 22:33N 47°11' W 003°08'1010.3
2017-Jan-12 21:34N 47°19' W 003°19'1110.6
2017-Jan-12 20:33N 47°27' W 003°29'1010.4
2017-Jan-12 19:34N 47°35' W 003°38'2110.7
2017-Jan-12 17:33N 47°48' W 004°03'8 7.9
2017-Jan-12 16:33N 47°56' W 004°07'4 1.2
2017-Jan-12 13:33N 47°52' W 004°07'18 5.9
2017-Jan-12 10:33N 47°42' W 003°46'9 9.2
2017-Jan-12 09:33N 47°37' W 003°34'9 9.3
2017-Jan-12 08:33N 47°31' W 003°24'10 9.7
2017-Jan-12 07:33N 47°25' W 003°12'1010.0
2017-Jan-12 06:33N 47°19' W 003°00'10 9.2
2017-Jan-12 05:27N 47°12' W 002°50'8 8.9
2017-Jan-12 04:33N 47°06' W 002°43'19 8.3
2017-Jan-12 02:19N 46°52' W 002°24'6 8.3
2017-Jan-12 01:33N 46°47' W 002°18'9 8.8
2017-Jan-12 00:33N 46°40' W 002°10'9 8.8
2017-Jan-11 23:33N 46°33' W 002°03'9 8.6
2017-Jan-11 22:33N 46°26' W 001°56'8 8.4
2017-Jan-11 21:33N 46°19' W 001°49'9 8.4
2017-Jan-11 20:27N 46°11' W 001°42'8 7.4
2017-Jan-11 19:26N 46°05' W 001°36'0 0.1
2017-Jan-11 18:33N 46°05' W 001°36'9 4.6
2017-Jan-11 16:33N 46°13' W 001°42'1110.6
2017-Jan-11 15:34N 46°23' W 001°46'7 6.7
2017-Jan-11 14:33N 46°30' W 001°48'0 0.0
2017-Jan-11 13:33N 46°30' W 001°48'4 3.7
2017-Jan-11 12:33N 46°26' W 001°47'7 6.7
2017-Jan-11 11:33N 46°20' W 001°45'7 7.1
2017-Jan-11 10:31N 46°13' W 001°42'2 0.3
2017-Jan-11 05:33N 46°11' W 001°42'1010.2
2017-Jan-11 04:33N 46°20' W 001°50'1010.3
2017-Jan-11 03:33N 46°28' W 001°58'1010.4
2017-Jan-11 02:33N 46°37' W 002°07'1510.6
2017-Jan-11 01:09N 46°49' W 002°20'1910.4
2017-Jan-10 23:21N 47°03' W 002°38'810.4
2017-Jan-10 22:33N 47°09' W 002°46'1010.2
2017-Jan-10 21:33N 47°17' W 002°56'1010.2
2017-Jan-10 20:33N 47°23' W 003°08'10 9.9
2017-Jan-10 19:34N 47°28' W 003°20'1010.3
2017-Jan-10 18:33N 47°35' W 003°32'1110.5
2017-Jan-10 17:33N 47°41' W 003°44'1010.5
2017-Jan-10 16:33N 47°46' W 003°57'9 9.3
2017-Jan-10 15:33N 47°53' W 004°07'3 0.7
2017-Jan-10 11:33N 47°51' W 004°06'15 7.6
2017-Jan-10 09:32N 47°43' W 003°46'9 8.8
2017-Jan-10 08:33N 47°37' W 003°36'8 8.4
2017-Jan-10 07:34N 47°32' W 003°27'8 8.2
2017-Jan-10 06:34N 47°27' W 003°17'9 8.5
2017-Jan-10 05:34N 47°22' W 003°06'9 8.6
2017-Jan-10 04:33N 47°17' W 002°57'8 8.4
2017-Jan-10 03:33N 47°10' W 002°49'8 8.0
2017-Jan-10 02:33N 47°04' W 002°41'32 7.4
2017-Jan-09 22:16N 46°40' W 002°11'6 8.1
2017-Jan-09 21:33N 46°35' W 002°07'8 8.4
2017-Jan-09 20:33N 46°29' W 001°59'9 8.9
2017-Jan-09 19:33N 46°22' W 001°52'10 9.0
2017-Jan-09 18:30N 46°14' W 001°44'4 1.0
2017-Jan-09 14:33N 46°10' W 001°41'10 9.6
2017-Jan-09 13:33N 46°19' W 001°46'10 9.9
2017-Jan-09 12:33N 46°29' W 001°47'1 1.1
2017-Jan-09 11:33N 46°30' W 001°48'2 1.6
2017-Jan-09 10:33N 46°29' W 001°47'0 0.0
2017-Jan-09 09:33N 46°29' W 001°47'0 0.0
2017-Jan-09 08:33N 46°29' W 001°47'0 0.0
2017-Jan-09 07:33N 46°29' W 001°47'0 0.1
2017-Jan-09 06:33N 46°29' W 001°47'0 0.0
2017-Jan-09 05:33N 46°29' W 001°47'0 0.0
2017-Jan-09 04:33N 46°29' W 001°47'0 0.0
2017-Jan-09 03:33N 46°29' W 001°47'4 4.0
2017-Jan-09 02:33N 46°24' W 001°47'8 7.5
2017-Jan-09 01:33N 46°17' W 001°46'6 1.2
2017-Jan-08 20:33N 46°12' W 001°42'1010.2
2017-Jan-08 19:34N 46°20' W 001°51'1010.0
2017-Jan-08 18:33N 46°28' W 001°59'10 9.9
2017-Jan-08 17:33N 46°36' W 002°07'3610.4
2017-Jan-08 14:06N 47°05' W 002°39'610.7
2017-Jan-08 13:33N 47°09' W 002°45'1110.6
2017-Jan-08 12:33N 47°17' W 002°55'1110.8
2017-Jan-08 11:33N 47°23' W 003°08'1110.7
2017-Jan-08 10:33N 47°27' W 003°23'1010.4
2017-Jan-08 09:33N 47°30' W 003°38'1110.3
2017-Jan-08 08:31N 47°34' W 003°52'4010.0
2017-Jan-08 04:33N 47°57' W 004°40'10 9.9
2017-Jan-08 03:34N 48°07' W 004°45'1110.9
2017-Jan-08 02:33N 48°18' W 004°46'1211.6
2017-Jan-08 01:33N 48°29' W 004°50'9 9.5
2017-Jan-08 00:33N 48°38' W 004°46'9 8.9
2017-Jan-07 23:33N 48°42' W 004°33'101 4.7
2017-Jan-07 02:13N 48°39' W 002°01'  

Dump ship's entire track history